Latest Weather Observations for Dwellingup

IDW60801

Issued at 8:03 pm WST Sunday 19 November 2017 (issued every 30 minutes, with the page automatically refreshed every 10 minutes)

About weather observations | Map of weather stations | Latest weather observations for WA | Other Formats
Station Details ID: 009538 Name: DWELLINGUP Lat: -32.71 Lon: 116.06 Height: 267.0 m
Data from the previous 72 hours. | See also: Recent months at Dwellingup
Date/Time
WST
Temp
°C
App
Temp
°C
Dew
Point
°C
Rel
Hum
%
Delta-T
°C
Wind Press
QNH
hPa
Press
MSL
hPa
Rain since
9am
mm
Dir  Spd
km/h
Gust
km/h
Spd
kts
Gust
kts
19/08:00pm 14.2 11.2 9.4 73 2.5 WSW 15 20 8 11 1014.8 1014.2 0.0
19/07:30pm 15.0 12.5 9.6 70 2.8 WSW 13 19 7 10 1014.5 1013.9 0.0
19/07:00pm 15.9 13.9 10.0 68 3.1 SW 11 17 6 9 1014.0 1013.4 0.0
19/06:30pm 16.8 14.4 10.0 64 3.6 WSW 13 20 7 11 1013.7 1013.1 0.0
19/06:00pm 18.2 15.8 10.1 59 4.4 SW 13 20 7 11 1013.3 1012.7 0.0
19/05:30pm 19.4 17.1 10.4 56 4.9 WSW 13 20 7 11 1013.1 1012.5 0.0
19/05:00pm 20.0 17.8 10.7 55 5.1 WSW 13 22 7 12 1013.2 1012.6 0.0
19/04:30pm 19.3 16.1 9.8 54 5.1 SSW 17 28 9 15 1013.2 1012.6 0.0
19/04:00pm 20.1 18.1 10.2 53 5.4 SW 11 22 6 12 1013.2 1012.6 0.0
19/03:30pm 20.2 17.7 10.9 55 5.1 SW 15 24 8 13 1013.4 1012.8 0.0
19/03:00pm 19.9 16.9 10.6 55 5.1 SW 17 28 9 15 1013.4 1012.8 0.0
19/02:30pm 20.3 16.7 10.4 53 5.4 WSW 20 33 11 18 1013.6 1013.0 0.0
19/02:00pm 19.9 16.9 10.6 55 5.1 WSW 17 28 9 15 1013.9 1013.3 0.0
19/01:30pm 19.8 16.4 10.5 55 5.1 WSW 19 32 10 17 1014.1 1013.5 0.0
19/01:00pm 19.6 17.3 11.6 60 4.5 WSW 15 28 8 15 1014.2 1013.6 0.0
19/12:30pm 21.0 18.9 12.4 58 4.9 WSW 15 32 8 17 1014.2 1013.6 0.0
19/12:00pm 20.1 17.4 11.8 59 4.7 WSW 17 30 9 16 1014.2 1013.6 0.0
19/11:30am 19.8 17.3 12.3 62 4.2 W 17 28 9 15 1014.3 1013.7 0.0
19/11:00am 20.0 17.5 12.3 61 4.4 W 17 24 9 13 1014.2 1013.6 0.0
19/10:30am 20.0 18.2 11.0 56 5.0 WNW 11 20 6 11 1014.1 1013.5 0.0
19/10:00am 20.7 19.6 11.9 57 5.0 NW 9 24 5 13 1014.1 1013.5 0.0
19/09:30am 20.0 19.1 11.2 57 4.9 NNW 7 15 4 8 1014.1 1013.5 0.0
19/09:00am 19.0 18.1 11.3 61 4.3 NNW 7 13 4 7 1014.0 1013.4 0.0
19/08:30am 18.2 17.2 12.2 68 3.4 WNW 9 15 5 8 1014.3 1013.7 0.0
19/08:00am 16.4 16.3 12.0 75 2.4 NW 4 9 2 5 1014.5 1013.9 0.0
19/07:30am 15.4 14.9 12.2 81 1.8 W 6 9 3 5 1014.3 1013.7 0.0
19/07:00am 14.4 14.6 13.0 91 0.8 S 4 7 2 4 1014.0 1013.4 0.0
19/06:30am 13.6 13.2 12.5 93 0.6 SSW 6 11 3 6 1013.9 1013.3 0.0
19/06:00am 12.7 11.5 11.6 93 0.6 SW 9 13 5 7 1013.8 1013.2 0.0
19/05:30am 11.8 9.6 10.7 93 0.6 WSW 13 15 7 8 1013.5 1012.9 0.0
19/05:00am 11.4 9.4 10.1 92 0.7 SW 11 13 6 7 1013.3 1012.7 0.0
19/04:30am 11.6 9.9 10.0 90 0.8 S 9 11 5 6 1012.8 1012.2 0.0
19/04:00am 12.1 10.6 10.5 90 0.8 SSE 9 9 5 5 1012.5 1011.9 0.0
19/03:30am 12.9 12.0 11.3 90 0.9 SSE 7 9 4 5 1012.6 1012.0 0.0
19/03:00am 13.6 12.8 11.8 89 1.0 S 7 9 4 5 1012.5 1011.9 0.0
19/02:30am 14.2 13.7 12.2 88 1.1 S 6 9 3 5 1012.6 1012.0 0.0
19/02:00am 14.7 14.2 12.7 88 1.1 SW 7 13 4 7 1013.1 1012.5 0.0
19/01:30am 14.5 13.6 12.5 88 1.1 WSW 9 13 5 7 1013.2 1012.6 0.0
19/01:00am 14.7 13.0 12.4 86 1.3 WSW 13 17 7 9 1013.3 1012.7 0.0
19/12:30am 15.2 14.0 12.7 85 1.4 SW 11 19 6 10 1013.6 1013.0 0.0
19/12:00am 15.4 13.8 12.7 84 1.5 SW 13 17 7 9 1013.6 1013.0 0.0
 
Date/Time
WST
Temp
°C
App
Temp
°C
Dew
Point
°C
Rel
Hum
%
Delta-T
°C
Wind Press
QNH
hPa
Press
MSL
hPa
Rain since
9am
mm
Dir  Spd
km/h
Gust
km/h
Spd
kts
Gust
kts
18/11:30pm 15.5 14.4 13.0 85 1.4 WSW 11 19 6 10 1013.9 1013.3 0.0
18/11:00pm 15.5 14.4 13.0 85 1.4 WSW 11 19 6 10 1014.1 1013.5 0.0
18/10:30pm 15.8 14.3 13.1 84 1.5 WSW 13 22 7 12 1014.1 1013.5 0.0
18/10:00pm 15.9 15.2 13.2 84 1.5 SW 9 19 5 10 1014.1 1013.5 0.0
18/09:30pm 15.9 15.1 13.0 83 1.6 SW 9 15 5 8 1014.0 1013.4 0.0
18/09:00pm 15.7 14.9 12.8 83 1.6 WSW 9 13 5 7 1013.6 1013.0 0.0
18/08:30pm 15.7 14.8 12.5 81 1.8 WSW 9 15 5 8 1013.0 1012.4 0.0
18/08:00pm 16.0 14.7 12.4 79 2.0 SW 11 17 6 9 1012.7 1012.1 0.0
18/07:30pm 16.6 15.0 12.8 78 2.1 WSW 13 24 7 13 1012.4 1011.8 0.0
18/07:00pm 16.7 14.4 11.8 73 2.7 WSW 15 26 8 14 1011.9 1011.2 0.0
18/06:30pm 17.6 16.2 12.1 70 3.1 WSW 11 20 6 11 1011.2 1010.6 0.0
18/06:00pm 18.3 16.4 11.8 66 3.6 WSW 13 26 7 14 1011.0 1010.4 0.0
18/05:30pm 19.2 17.1 11.3 60 4.4 WSW 13 24 7 13 1010.4 1009.8 0.0
18/05:00pm 20.1 17.4 11.8 59 4.7 WSW 17 30 9 16 1010.2 1009.6 0.0
18/04:30pm 19.2 16.9 11.7 62 4.2 WSW 15 26 8 14 1010.1 1009.5 0.0
18/04:00pm 21.4 18.7 11.7 54 5.5 WSW 17 30 9 16 1009.7 1009.1 0.0
18/03:30pm 19.7 16.9 11.2 58 4.7 WSW 17 32 9 17 1009.5 1008.9 0.0
18/03:00pm 20.9 18.5 11.5 55 5.3 WSW 15 30 8 16 1009.3 1008.7 0.0
18/02:30pm 21.0 17.6 10.5 51 5.8 WSW 19 33 10 18 1009.4 1008.8 0.0
18/02:00pm 20.9 17.7 11.8 56 5.1 W 20 33 11 18 1009.2 1008.6 0.0
18/01:30pm 21.0 17.8 11.1 53 5.5 WSW 19 39 10 21 1008.9 1008.3 0.0
18/01:00pm 21.4 18.8 12.0 55 5.3 W 17 35 9 19 1008.6 1007.9 0.0
18/12:30pm 20.5 17.2 11.7 57 4.9 WNW 20 32 11 17 1008.4 1007.7 0.0
18/12:00pm 21.7 18.7 12.0 54 5.5 WNW 19 33 10 18 1008.3 1007.6 0.0
18/11:30am 21.1 19.0 12.3 57 5.0 WNW 15 32 8 17 1008.2 1007.5 0.0
18/11:00am 20.7 18.0 12.9 61 4.5 WNW 19 33 10 18 1008.3 1007.6 0.0
18/10:30am 19.9 17.4 12.4 62 4.3 NW 17 30 9 16 1008.1 1007.4 0.0
18/10:00am 19.6 16.8 11.4 59 4.6 NNW 17 30 9 16 1007.9 1007.2 0.0
18/09:30am 19.4 16.3 12.2 63 4.1 NNW 20 32 11 17 1007.9 1007.2 0.0
18/09:00am 18.1 16.0 12.5 70 3.2 NNW 15 28 8 15 1008.2 1007.5 1.4
18/08:30am 16.6 14.7 13.1 80 2.0 NW 15 26 8 14 1008.3 1007.6 1.4
18/08:00am 16.6 15.2 13.5 82 1.8 NW 13 26 7 14 1008.1 1007.4 1.2
18/07:30am 17.3 15.5 13.4 78 2.2 NNW 15 26 8 14 1007.5 1006.9 1.2
18/07:00am 15.7 15.5 14.7 94 0.6 N 9 17 5 9 1007.1 1006.5 1.2
18/06:30am 14.7 13.8 13.7 94 0.6 NNE 11 15 6 8 1006.8 1006.2 1.2
18/06:00am 14.3 12.8 13.2 93 0.6 SE 13 20 7 11 1005.5 1004.8 1.0
18/05:30am 13.8 12.9 12.7 93 0.6 ENE 9 11 5 6 1006.4 1005.8 1.0
18/05:00am 13.4 12.7 12.1 92 0.7 ESE 7 11 4 6 1006.2 1005.6 1.0
18/04:30am 13.4 12.7 12.1 92 0.7 E 7 9 4 5 1005.5 1004.8 1.0
18/04:00am 13.5 13.0 12.2 92 0.7 ESE 6 11 3 6 1005.4 1004.7 1.0
18/03:30am 13.7 12.7 12.4 92 0.7 NW 9 11 5 6 1005.5 1004.8 1.0
18/03:00am 13.8 13.3 12.5 92 0.7 NW 7 9 4 5 1005.4 1004.7 1.0
18/02:30am 13.8 14.6 12.5 92 0.7 CALM 0 0 0 0 1005.4 1004.7 1.0
18/02:00am 13.4 12.7 12.1 92 0.7 NW 7 11 4 6 1005.6 1004.9 1.0
18/01:30am 13.1 12.9 11.7 91 0.8 NNE 4 7 2 4 1005.4 1004.7 1.0
18/01:00am 13.2 13.7 11.6 90 0.9 CALM 0 0 0 0 1005.5 1004.8 1.0
18/12:30am 13.6 12.9 12.0 90 0.9 N 7 9 4 5 1005.9 1005.3 1.0
18/12:00am 14.5 14.2 12.7 89 1.0 NNE 6 9 3 5 1006.0 1005.4 1.0
 
Date/Time
WST
Temp
°C
App
Temp
°C
Dew
Point
°C
Rel
Hum
%
Delta-T
°C
Wind Press
QNH
hPa
Press
MSL
hPa
Rain since
9am
mm
Dir  Spd
km/h
Gust
km/h
Spd
kts
Gust
kts
17/11:30pm 14.4 13.6 12.8 90 0.9 N 9 13 5 7 1006.3 1005.7 1.0
17/11:00pm 14.0 13.4 12.4 90 0.9 N 7 9 4 5 1006.3 1005.7 1.0
17/10:30pm 13.8 13.0 11.8 88 1.1 NNW 7 11 4 6 1006.8 1006.2 1.0
17/10:00pm 14.3 13.7 12.2 87 1.2 NNW 7 9 4 5 1006.6 1006.0 1.0
17/09:30pm 14.8 15.1 12.3 85 1.4 N 2 7 1 4 1006.7 1006.1 1.0
17/09:00pm 15.3 13.6 12.4 83 1.6 NW 13 17 7 9 1007.0 1006.4 1.0
17/08:30pm 15.8 14.1 12.4 80 1.9 WNW 13 20 7 11 1006.8 1006.2 1.0
17/08:00pm 16.0 13.9 12.4 79 2.0 NW 15 22 8 12 1006.6 1006.0 1.0
17/07:30pm 16.4 14.7 12.4 77 2.2 NW 13 20 7 11 1006.5 1005.9 0.8
17/07:00pm 17.1 15.4 12.4 74 2.6 NW 13 20 7 11 1006.4 1005.8 0.8
17/06:30pm 17.7 16.0 12.4 71 3.0 NW 13 22 7 12 1006.2 1005.6 0.8
17/06:00pm 18.5 15.7 12.7 69 3.3 NW 19 32 10 17 1005.9 1005.3 0.8
17/05:30pm 18.5 16.0 12.3 67 3.5 NW 17 32 9 17 1005.5 1004.8 0.8
17/05:00pm 19.1 17.2 13.1 68 3.4 NNW 15 26 8 14 1005.0 1004.3 0.8
17/04:30pm 19.5 17.2 13.0 66 3.7 NW 17 26 9 14 1005.1 1004.4 0.8
17/04:00pm 19.8 17.4 13.7 68 3.6 NW 19 37 10 20 1005.0 1004.3 0.8
17/03:30pm 19.5 17.5 13.9 70 3.3 NNW 17 28 9 15 1004.9 1004.2 0.8
17/03:00pm 19.7 18.4 15.8 78 2.4 NNW 17 30 9 16 1004.9 1004.2 0.8
17/02:30pm 17.9 16.4 15.2 84 1.6 NNW 17 30 9 16 1005.3 1004.6 0.8
17/02:00pm 19.3 17.4 14.1 72 3.0 NW 17 33 9 18 1005.1 1004.4 0.2
17/01:30pm 20.3 17.5 13.3 64 4.0 NW 20 35 11 19 1004.9 1004.2 0.2
17/01:00pm 20.4 19.1 14.7 70 3.4 NW 15 30 8 16 1005.0 1004.3 0.2
17/12:30pm 19.7 19.2 15.8 78 2.3 NNW 13 20 7 11 1005.2 1004.5 0.0
17/12:00pm 18.5 17.2 15.9 85 1.6 NNW 17 30 9 16 1005.3 1004.6 0.0
17/11:30am 17.7 16.6 15.3 86 1.4 NW 15 28 8 15 1005.5 1004.8 0.0
17/11:00am 19.7 17.3 14.3 71 3.2 NW 20 39 11 21 1005.2 1004.5 0.0
17/10:30am 20.2 17.3 14.1 68 3.6 NW 22 41 12 22 1005.1 1004.4 0.0
17/10:00am 20.0 17.6 14.4 70 3.3 NW 20 35 11 19 1005.1 1004.4 0.0
17/09:30am 19.7 17.3 14.5 72 3.1 NNW 20 37 11 20 1004.9 1004.2 0.0
17/09:00am 20.2 18.2 15.0 72 3.1 NNW 19 33 10 18 1004.9 1004.2 1.2
17/08:30am 19.3 17.5 15.4 78 2.3 NNW 19 30 10 16 1005.0 1004.3 1.2
17/08:00am 18.9 18.3 15.6 81 2.0 NNW 13 28 7 15 1005.1 1004.4 1.2
17/07:30am 18.5 16.9 15.9 85 1.6 NNW 19 32 10 17 1004.6 1003.9 1.2
17/07:00am 18.3 17.4 15.9 86 1.4 NNW 15 28 8 15 1004.5 1003.8 1.2
17/06:30am 18.1 16.8 15.9 87 1.3 NNW 17 26 9 14 1004.1 1003.4 1.2
17/06:00am 17.9 17.4 15.9 88 1.2 NNW 13 19 7 10 1003.8 1003.2 1.2
17/05:30am 18.0 17.2 16.2 89 1.1 NNW 15 22 8 12 1003.8 1003.2 1.2
17/05:00am 18.0 16.8 16.2 89 1.1 N 17 28 9 15 1004.1 1003.4 1.2
17/04:30am 18.0 16.9 16.3 90 1.0 NNW 17 22 9 12 1004.0 1003.3 1.2
17/04:00am 17.8 17.0 16.0 89 1.1 NNW 15 24 8 13 1003.5 1002.9 1.2
17/03:30am 18.0 17.2 16.0 88 1.2 NNW 15 20 8 11 1003.5 1002.9 1.2
17/03:00am 18.6 17.5 15.3 81 2.0 NNW 15 24 8 13 1003.6 1003.0 0.0
17/02:30am 18.9 18.6 15.4 80 2.1 NNW 11 20 6 11 1003.5 1002.9 0.0
17/02:00am 19.1 18.4 15.4 79 2.2 NNW 13 26 7 14 1003.7 1003.1 0.0
17/01:30am 19.2 17.5 15.7 80 2.1 NNW 19 28 10 15 1004.0 1003.3 0.0
17/01:00am 19.4 18.1 15.9 80 2.1 NNW 17 33 9 18 1004.4 1003.7 0.0
17/12:30am 19.6 18.1 16.3 81 2.0 NNW 19 32 10 17 1005.0 1004.3 0.0
17/12:00am 19.7 18.7 16.5 82 2.0 NW 17 33 9 18 1005.0 1004.3 0.0
 
Date/Time
WST
Temp
°C
App
Temp
°C
Dew
Point
°C
Rel
Hum
%
Delta-T
°C
Wind Press
QNH
hPa
Press
MSL
hPa
Rain since
9am
mm
Dir  Spd
km/h
Gust
km/h
Spd
kts
Gust
kts
16/11:30pm 20.1 19.1 15.7 76 2.6 NNW 15 28 8 15 1004.6 1003.9 0.0
16/11:00pm 20.2 19.4 15.0 72 3.1 NNW 13 20 7 11 1004.7 1004.0 0.0
16/10:30pm 20.5 20.5 15.3 72 3.1 NNW 9 15 5 8 1004.4 1003.7 0.0
16/10:00pm 21.0 20.3 15.3 70 3.4 NNE 13 20 7 11 1004.3 1003.6 0.0
16/09:30pm 21.6 21.1 15.0 66 3.9 N 11 15 6 8 1004.8 1004.1 0.0
16/09:00pm 21.8 20.5 14.7 64 4.2 NNW 15 20 8 11 1005.1 1004.4 0.0
16/08:30pm 22.4 21.3 14.3 60 4.8 NNW 13 19 7 10 1004.9 1004.2 0.0

Other Formats:

Comma delimited format used in spreadsheet applications
http://www.bom.gov.au/fwo/IDW60801/IDW60801.94620.axf

JavaScript Object Notation format (JSON) in row-major order
http://www.bom.gov.au/fwo/IDW60801/IDW60801.94620.json